createdAt,value
2018-06-18T00:01:34.069Z,95477.98
2018-06-18T00:04:39.059Z,95473.30
2018-06-18T00:07:43.358Z,95481.17
2018-06-18T00:10:47.988Z,95475.49
2018-06-18T00:13:52.658Z,95484.66
2018-06-18T00:16:56.944Z,95477.98
2018-06-18T00:20:01.520Z,95483.11
2018-06-18T00:23:06.156Z,95482.88
2018-06-18T00:26:10.467Z,95478.91
2018-06-18T00:29:14.857Z,95478.91
2018-06-18T00:32:19.474Z,95479.33
2018-06-18T00:35:24.019Z,95479.47
2018-06-18T00:38:28.518Z,95480.14
2018-06-18T00:41:32.794Z,95486.83
2018-06-18T00:44:37.865Z,95489.32
2018-06-18T00:47:42.141Z,95488.17
2018-06-18T00:50:46.450Z,95492.10
2018-06-18T00:53:50.742Z,95495.41
2018-06-18T00:56:55.065Z,95496.67
2018-06-18T00:59:59.345Z,95492.41
2018-06-18T01:03:03.915Z,95494.30
2018-06-18T01:06:08.670Z,95498.41
2018-06-18T01:09:13.477Z,95494.63
2018-06-18T01:12:18.113Z,95490.73
2018-06-18T01:15:22.630Z,95488.17
2018-06-18T01:18:27.770Z,95480.07
2018-06-18T01:21:32.041Z,95483.97
2018-06-18T01:25:08.501Z,95486.09
2018-06-18T01:28:12.924Z,95487.09
2018-06-18T01:31:17.349Z,95489.44
2018-06-18T01:34:26.809Z,95490.22
2018-06-18T01:37:31.189Z,95488.65
2018-06-18T01:40:35.520Z,95485.53
2018-06-18T01:43:39.876Z,95489.87
2018-06-18T01:46:44.373Z,95494.11
2018-06-18T01:49:48.825Z,95494.37
2018-06-18T01:52:53.130Z,95484.75
2018-06-18T01:55:57.482Z,95486.91
2018-06-18T01:59:01.812Z,95488.61
2018-06-18T02:02:06.113Z,95491.36
2018-06-18T02:05:10.419Z,95490.47
2018-06-18T02:08:14.721Z,95482.19
2018-06-18T02:11:19.003Z,95489.91
2018-06-18T02:14:23.286Z,95493.15
2018-06-18T02:17:27.552Z,95487.91
2018-06-18T02:20:31.856Z,95485.12
2018-06-18T02:23:36.609Z,95489.73
2018-06-18T02:26:40.885Z,95489.17
2018-06-18T02:29:51.536Z,95493.18
2018-06-18T02:33:01.096Z,95493.81
2018-06-18T02:36:10.504Z,95497.63
2018-06-18T02:39:15.761Z,95498.61
2018-06-18T02:42:20.054Z,95499.16
2018-06-18T02:45:24.341Z,95504.06
2018-06-18T02:48:28.626Z,95509.66
2018-06-18T02:51:32.895Z,95509.41
2018-06-18T02:54:37.241Z,95517.32
2018-06-18T02:57:41.842Z,95516.34
2018-06-18T03:00:46.147Z,95517.98
2018-06-18T03:03:50.420Z,95521.89
2018-06-18T03:06:54.694Z,95517.88
2018-06-18T03:09:58.978Z,95508.48
2018-06-18T03:13:03.510Z,95519.33
2018-06-18T03:16:07.833Z,95525.53
2018-06-18T03:19:17.844Z,95528.57
2018-06-18T03:22:27.781Z,95531.02
2018-06-18T03:25:37.504Z,95534.55
2018-06-18T03:28:47.300Z,95536.45
2018-06-18T03:31:53.735Z,95538.23
2018-06-18T03:34:58.135Z,95533.78
2018-06-18T03:38:03.237Z,95536.23
2018-06-18T03:41:08.898Z,95534.66
2018-06-18T03:44:19.076Z,95537.00
2018-06-18T03:47:28.853Z,95535.67
2018-06-18T03:50:33.385Z,95533.44
2018-06-18T03:53:37.660Z,95535.78
2018-06-18T03:56:42.472Z,95540.09
2018-06-18T03:59:47.184Z,95546.00
2018-06-18T04:03:00.660Z,95553.58
2018-06-18T04:06:10.098Z,95553.88
2018-06-18T04:09:19.822Z,95550.27
2018-06-18T04:12:24.361Z,95554.81
2018-06-18T04:15:28.769Z,95555.70
2018-06-18T04:18:33.173Z,95556.33
2018-06-18T04:21:37.453Z,95554.13
2018-06-18T04:24:41.746Z,95556.14
2018-06-18T04:27:46.442Z,95551.52
2018-06-18T04:30:50.873Z,95552.20
2018-06-18T04:34:06.064Z,95561.56
2018-06-18T04:37:10.373Z,95560.45
2018-06-18T04:40:14.657Z,95554.34
2018-06-18T04:43:24.197Z,95553.88
2018-06-18T04:46:33.952Z,95559.34
2018-06-18T04:50:43.605Z,95559.56
2018-06-18T04:53:48.302Z,95560.13
2018-06-18T04:56:52.666Z,95567.33
2018-06-18T05:01:11.955Z,95571.28
2018-06-18T05:04:16.280Z,95573.91
2018-06-18T05:07:22.806Z,95577.67
2018-06-18T05:10:29.352Z,95576.49
2018-06-18T05:13:33.917Z,95573.16
2018-06-18T05:16:39.420Z,95573.78
2018-06-18T05:19:43.753Z,95581.66
2018-06-18T05:22:48.217Z,95588.59
2018-06-18T05:26:01.129Z,95595.15
2018-06-18T05:29:05.717Z,95590.75
2018-06-18T05:32:11.095Z,95592.25
2018-06-18T05:35:15.494Z,95591.48
2018-06-18T05:38:30.734Z,95594.42
2018-06-18T05:41:35.376Z,95589.50
2018-06-18T05:44:41.353Z,95582.56
2018-06-18T05:47:45.763Z,95577.28
2018-06-18T05:50:50.911Z,95573.13
2018-06-18T05:53:55.358Z,95579.63
2018-06-18T05:56:59.769Z,95582.02
2018-06-18T06:00:05.224Z,95571.16
2018-06-18T06:03:09.889Z,95570.34
2018-06-18T06:06:14.619Z,95575.99
2018-06-18T06:09:18.957Z,95575.69
2018-06-18T06:12:23.256Z,95585.34
2018-06-18T06:15:27.652Z,95585.97
2018-06-18T06:18:32.018Z,95583.86
2018-06-18T06:21:36.501Z,95584.53
2018-06-18T06:24:41.901Z,95585.83
2018-06-18T06:27:46.465Z,95595.70
2018-06-18T06:30:50.894Z,95594.98
2018-06-18T06:33:55.202Z,95605.63
2018-06-18T06:36:59.646Z,95601.14
2018-06-18T06:40:04.026Z,95599.17
2018-06-18T06:43:08.725Z,95607.25
2018-06-18T06:46:13.048Z,95613.42
2018-06-18T06:49:17.587Z,95614.13
2018-06-18T06:52:21.930Z,95614.42
2018-06-18T06:55:27.888Z,95615.00
2018-06-18T06:58:32.508Z,95610.30
2018-06-18T07:01:37.864Z,95618.52
2018-06-18T07:04:42.484Z,95612.16
2018-06-18T07:07:46.865Z,95618.63
2018-06-18T07:10:51.200Z,95624.80
2018-06-18T07:13:59.403Z,95629.45
2018-06-18T07:17:03.891Z,95628.25
2018-06-18T07:20:08.381Z,95637.64
2018-06-18T07:23:12.900Z,95636.25
2018-06-18T07:26:17.326Z,95631.14
2018-06-18T07:29:22.442Z,95639.45
2018-06-18T07:32:26.887Z,95636.61
2018-06-18T07:35:31.233Z,95632.54
2018-06-18T07:38:37.318Z,95636.92
2018-06-18T07:41:41.952Z,95642.88
2018-06-18T07:44:48.226Z,95640.88
2018-06-18T07:47:53.937Z,95639.77
2018-06-18T07:50:58.954Z,95641.20
2018-06-18T07:54:04.106Z,95649.39
2018-06-18T07:57:18.659Z,95646.16
2018-06-18T08:00:30.026Z,95648.22
2018-06-18T08:03:35.605Z,95645.39
2018-06-18T08:07:01.868Z,95641.59
2018-06-18T08:10:07.259Z,95638.41
2018-06-18T08:13:13.934Z,95634.77
2018-06-18T08:16:19.937Z,95636.80
2018-06-18T08:19:24.414Z,95634.14
2018-06-18T08:22:29.179Z,95638.77
2018-06-18T08:25:36.581Z,95638.80
2018-06-18T08:28:42.134Z,95643.29
2018-06-18T08:37:08.891Z,95646.75
2018-06-18T08:40:15.861Z,95650.09
2018-06-18T08:46:55.835Z,95652.02
2018-06-18T08:50:05.365Z,95654.54
2018-06-18T08:53:16.395Z,95658.06
2018-06-18T08:56:27.583Z,95655.13
2018-06-18T08:59:37.426Z,95652.23
2018-06-18T09:02:47.175Z,95647.78
2018-06-18T09:06:02.525Z,95651.27
2018-06-18T09:09:09.529Z,95648.87
2018-06-18T09:12:13.930Z,95638.23
2018-06-18T09:15:18.365Z,95638.12
2018-06-18T09:18:23.278Z,95632.74
2018-06-18T09:21:27.644Z,95630.12
2018-06-18T09:24:34.710Z,95629.03
2018-06-18T09:27:39.072Z,95633.44
2018-06-18T09:30:43.435Z,95636.27
2018-06-18T09:33:48.018Z,95626.50
2018-06-18T09:36:52.421Z,95623.09
2018-06-18T09:39:56.753Z,95622.84
2018-06-18T09:43:01.182Z,95632.61
2018-06-18T09:46:05.633Z,95630.26
2018-06-18T09:49:15.829Z,95635.50
2018-06-18T09:52:25.199Z,95638.17
2018-06-18T09:55:35.009Z,95632.98
2018-06-18T09:58:44.914Z,95631.66
2018-06-18T10:01:49.957Z,95635.17
2018-06-18T10:04:54.262Z,95641.80
2018-06-18T10:07:58.627Z,95630.36
2018-06-18T10:11:04.203Z,95624.33
2018-06-18T10:14:12.111Z,95637.06
2018-06-18T10:17:16.678Z,95646.48
2018-06-18T10:20:21.044Z,95639.23
2018-06-18T10:23:25.350Z,95643.84
2018-06-18T10:26:29.852Z,95646.55
2018-06-18T10:29:34.392Z,95640.59
2018-06-18T10:32:44.028Z,95638.17
2018-06-18T10:35:53.492Z,95636.13
2018-06-18T10:39:03.309Z,95637.47
2018-06-18T10:42:12.927Z,95638.15
2018-06-18T10:45:17.601Z,95640.27
2018-06-18T10:48:22.285Z,95649.16
2018-06-18T10:51:27.383Z,95643.48
2018-06-18T10:54:31.726Z,95642.52
2018-06-18T10:57:36.649Z,95650.09
2018-06-18T11:00:40.992Z,95651.44
2018-06-18T11:03:45.328Z,95646.33
2018-06-18T11:06:49.628Z,95655.02
2018-06-18T11:09:54.155Z,95645.45
2018-06-18T11:12:58.582Z,95637.66
2018-06-18T11:16:03.242Z,95639.27
2018-06-18T11:19:12.701Z,95636.13
2018-06-18T11:22:18.636Z,95632.64
2018-06-18T11:25:28.278Z,95623.53
2018-06-18T11:28:32.431Z,95627.84
2018-06-18T11:31:36.726Z,95623.80
2018-06-18T11:34:41.039Z,95623.98
2018-06-18T11:37:45.529Z,95620.08
2018-06-18T11:40:50.145Z,95610.75
2018-06-18T11:43:54.471Z,95614.45
2018-06-18T11:46:59.114Z,95613.51
2018-06-18T11:50:03.529Z,95618.56
2018-06-18T11:53:08.540Z,95617.94
2018-06-18T11:56:12.894Z,95619.78
2018-06-18T11:59:22.582Z,95615.05
2018-06-18T12:02:32.448Z,95615.22
2018-06-18T12:05:42.810Z,95614.41
2018-06-18T12:08:53.497Z,95606.03
2018-06-18T12:11:57.967Z,95618.30
2018-06-18T12:15:02.447Z,95612.44
2018-06-18T12:18:06.831Z,95616.42
2018-06-18T12:21:11.280Z,95607.89
2018-06-18T12:24:15.777Z,95606.61
2018-06-18T12:27:25.674Z,95604.20
2018-06-18T12:30:31.052Z,95609.80
2018-06-18T12:33:36.042Z,95607.12
2018-06-18T12:36:40.467Z,95608.29
2018-06-18T12:39:47.540Z,95597.83
2018-06-18T12:42:51.940Z,95594.73
2018-06-18T12:46:01.898Z,95601.10
2018-06-18T12:49:11.829Z,95599.02
2018-06-18T12:52:21.753Z,95598.04
2018-06-18T12:55:31.507Z,95593.89
2018-06-18T12:58:35.925Z,95592.39
2018-06-18T13:01:49.973Z,95596.28
2018-06-18T13:04:57.957Z,95598.82
2018-06-18T13:08:02.901Z,95591.84
2018-06-18T13:11:07.480Z,95590.73
2018-06-18T13:14:11.923Z,95590.44
2018-06-18T13:17:17.096Z,95582.03
2018-06-18T13:20:22.009Z,95585.88
2018-06-18T13:23:26.490Z,95586.25
2018-06-18T13:26:31.098Z,95584.67
2018-06-18T13:29:35.542Z,95585.09
2018-06-18T13:32:40.614Z,95581.97
2018-06-18T13:35:45.725Z,95576.99
2018-06-18T13:38:55.365Z,95578.91
2018-06-18T13:42:06.600Z,95578.27
2018-06-18T13:45:16.326Z,95575.95
2018-06-18T13:48:24.849Z,95578.39
2018-06-18T13:51:29.965Z,95564.80
2018-06-18T13:54:34.661Z,95567.84
2018-06-18T13:57:38.958Z,95569.45
2018-06-18T14:00:43.452Z,95571.56
2018-06-18T14:03:48.641Z,95569.36
2018-06-18T14:06:53.337Z,95569.89
2018-06-18T14:09:57.636Z,95568.93
2018-06-18T14:13:02.245Z,95576.58
2018-06-18T14:16:06.735Z,95571.47
2018-06-18T14:19:16.130Z,95562.61
2018-06-18T14:22:20.509Z,95564.02
2018-06-18T14:25:25.208Z,95565.39
2018-06-18T14:28:29.513Z,95557.61
2018-06-18T14:31:39.120Z,95560.70
2018-06-18T14:34:48.791Z,95558.84
2018-06-18T14:37:58.445Z,95559.78
2018-06-18T14:41:02.901Z,95553.44
2018-06-18T14:44:07.408Z,95552.24
2018-06-18T14:47:12.221Z,95556.64
2018-06-18T14:50:16.761Z,95555.90
2018-06-18T14:53:21.347Z,95558.29
2018-06-18T14:56:31.027Z,95557.37
2018-06-18T14:59:45.804Z,95561.70
2018-06-18T15:02:50.369Z,95560.13
2018-06-18T15:05:54.984Z,95558.05
2018-06-18T15:09:00.531Z,95561.88
2018-06-18T15:12:05.706Z,95556.63
2018-06-18T15:15:15.485Z,95557.48
2018-06-18T15:18:19.791Z,95552.22
2018-06-18T15:21:24.311Z,95559.75
2018-06-18T15:24:56.021Z,95548.17
2018-06-18T15:28:00.490Z,95543.97
2018-06-18T15:31:05.602Z,95550.16
2018-06-18T15:34:10.409Z,95546.71
2018-06-18T15:37:15.298Z,95544.13
2018-06-18T15:40:20.839Z,95546.06
2018-06-18T15:43:25.571Z,95543.48
2018-06-18T15:46:30.129Z,95541.61
2018-06-18T15:49:34.777Z,95538.94
2018-06-18T15:52:39.805Z,95545.52
2018-06-18T15:55:44.326Z,95548.00
2018-06-18T15:58:48.920Z,95540.30
2018-06-18T16:01:55.223Z,95535.27
2018-06-18T16:04:59.720Z,95538.55
2018-06-18T16:08:04.640Z,95536.63
2018-06-18T16:11:08.856Z,95540.48
2018-06-18T16:14:13.279Z,95547.05
2018-06-18T16:17:18.020Z,95554.55
2018-06-18T16:20:23.049Z,95550.64
2018-06-18T16:23:27.569Z,95550.13
2018-06-18T16:26:32.141Z,95556.28
2018-06-18T16:29:36.929Z,95553.24
2018-06-18T16:32:41.552Z,95557.83
2018-06-18T16:35:46.101Z,95557.20
2018-06-18T16:38:50.468Z,95557.80
2018-06-18T16:41:55.482Z,95560.30
2018-06-18T16:45:00.104Z,95556.48
2018-06-18T16:48:05.013Z,95550.22
2018-06-18T16:51:09.526Z,95556.02
2018-06-18T16:54:14.161Z,95556.02
2018-06-18T16:57:19.310Z,95563.67
2018-06-18T17:00:23.865Z,95559.27
2018-06-18T17:03:28.561Z,95559.28
2018-06-18T17:06:32.985Z,95564.31
2018-06-18T17:09:37.388Z,95561.11
2018-06-18T17:12:42.122Z,95557.67
2018-06-18T17:15:46.977Z,95559.95
2018-06-18T17:18:51.686Z,95562.79
2018-06-18T17:21:56.384Z,95564.56
2018-06-18T17:25:00.715Z,95561.25
2018-06-18T17:28:05.466Z,95565.68
2018-06-18T17:31:10.556Z,95569.30
2018-06-18T17:34:15.261Z,95573.93
2018-06-18T17:37:19.624Z,95568.16
2018-06-18T17:40:24.231Z,95569.88
2018-06-18T17:43:29.193Z,95565.64
2018-06-18T17:46:33.766Z,95567.05
2018-06-18T17:49:38.496Z,95567.86
2018-06-18T17:52:42.948Z,95569.97
2018-06-18T17:55:47.739Z,95565.48
2018-06-18T17:58:52.368Z,95567.35
2018-06-18T18:01:56.875Z,95571.15
2018-06-18T18:05:01.262Z,95573.59
2018-06-18T18:08:06.000Z,95570.96
2018-06-18T18:11:10.720Z,95570.89
2018-06-18T18:14:15.891Z,95580.86
2018-06-18T18:17:20.418Z,95585.59
2018-06-18T18:20:25.712Z,95577.66
2018-06-18T18:23:30.065Z,95576.33
2018-06-18T18:26:34.485Z,95582.86
2018-06-18T18:29:38.869Z,95581.91
2018-06-18T18:32:43.199Z,95587.19
2018-06-18T18:35:47.574Z,95582.92
2018-06-18T18:38:51.891Z,95589.42
2018-06-18T18:41:56.469Z,95589.52
2018-06-18T18:45:01.132Z,95594.01
2018-06-18T18:48:05.773Z,95595.84
2018-06-18T18:51:10.288Z,95599.36
2018-06-18T18:55:30.533Z,95595.03
2018-06-18T18:59:50.302Z,95600.14
2018-06-18T19:02:54.935Z,95600.34
2018-06-18T19:06:00.372Z,95607.38
2018-06-18T19:09:07.407Z,95602.86
2018-06-18T19:12:11.810Z,95609.38
2018-06-18T19:15:16.599Z,95611.59
2018-06-18T19:18:21.034Z,95612.66
2018-06-18T19:21:25.545Z,95610.83
2018-06-18T19:24:29.936Z,95617.78
2018-06-18T19:27:34.790Z,95619.09
2018-06-18T19:30:42.083Z,95625.25
2018-06-18T19:34:08.625Z,95621.70
2018-06-18T19:37:14.345Z,95623.75
2018-06-18T19:40:19.922Z,95628.03
2018-06-18T19:43:24.221Z,95631.23
2018-06-18T19:46:36.361Z,95632.16
2018-06-18T19:49:41.378Z,95637.28
2018-06-18T19:52:45.682Z,95644.94
2018-06-18T19:55:51.197Z,95642.55
2018-06-18T19:58:56.442Z,95644.80
2018-06-18T20:02:00.790Z,95650.87
2018-06-18T20:05:10.309Z,95658.77
2018-06-18T20:08:21.024Z,95659.33
2018-06-18T20:11:25.844Z,95653.62
2018-06-18T20:14:30.317Z,95660.25
2018-06-18T20:17:35.152Z,95659.25
2018-06-18T20:20:39.823Z,95665.30
2018-06-18T20:23:44.367Z,95664.24
2018-06-18T20:26:49.439Z,95661.19
2018-06-18T20:29:53.729Z,95670.84
2018-06-18T20:32:58.038Z,95672.09
2018-06-18T20:36:12.876Z,95677.83
2018-06-18T20:39:17.246Z,95679.73
2018-06-18T20:42:22.706Z,95686.78
2018-06-18T20:45:27.818Z,95687.55
2018-06-18T20:48:32.440Z,95686.59
2018-06-18T20:51:36.777Z,95688.94
2018-06-18T20:54:41.090Z,95697.51
2018-06-18T20:57:48.377Z,95700.53
2018-06-18T21:00:53.349Z,95703.20
2018-06-18T21:03:59.426Z,95705.52
2018-06-18T21:07:05.584Z,95704.56
2018-06-18T21:10:09.624Z,95703.33
2018-06-18T21:13:14.348Z,95704.48
2018-06-18T21:16:20.185Z,95705.16
2018-06-18T21:19:24.603Z,95707.98
2018-06-18T21:22:29.138Z,95707.42
2018-06-18T21:25:34.069Z,95712.24
2018-06-18T21:28:40.334Z,95711.02
2018-06-18T21:31:44.690Z,95707.78
2018-06-18T21:34:49.196Z,95708.12
2018-06-18T21:37:54.101Z,95714.05
2018-06-18T21:40:58.458Z,95709.63
2018-06-18T21:44:02.631Z,95707.98
2018-06-18T21:47:07.005Z,95705.84
2018-06-18T21:50:11.286Z,95711.00
2018-06-18T21:53:15.603Z,95710.46
2018-06-18T21:56:20.092Z,95711.38
2018-06-18T21:59:24.431Z,95707.02
2018-06-18T22:02:28.923Z,95712.03
2018-06-18T22:05:33.130Z,95705.57
2018-06-18T22:08:37.240Z,95703.00
2018-06-18T22:11:43.023Z,95700.13
2018-06-18T22:14:47.407Z,95700.02
2018-06-18T22:17:51.812Z,95702.93
2018-06-18T22:20:56.094Z,95706.27
2018-06-18T22:24:00.420Z,95697.59
2018-06-18T22:27:05.000Z,95701.81
2018-06-18T22:30:09.333Z,95702.59
2018-06-18T22:33:13.636Z,95698.13
2018-06-18T22:36:17.942Z,95697.48
2018-06-18T22:39:22.241Z,95700.04
2018-06-18T22:42:26.618Z,95699.25
2018-06-18T22:45:31.673Z,95703.50
2018-06-18T22:48:36.054Z,95705.30
2018-06-18T22:51:40.421Z,95713.52
2018-06-18T22:54:48.122Z,95710.41
2018-06-18T22:57:52.559Z,95707.07
2018-06-18T23:00:59.912Z,95708.84
2018-06-18T23:04:04.487Z,95705.94
2018-06-18T23:07:09.120Z,95710.25
2018-06-18T23:10:13.494Z,95704.99
2018-06-18T23:13:21.768Z,95701.20
2018-06-18T23:16:26.070Z,95711.57
2018-06-18T23:19:31.338Z,95707.11
2018-06-18T23:22:35.661Z,95696.19
2018-06-18T23:25:40.035Z,95692.94
2018-06-18T23:28:50.124Z,95705.88
2018-06-18T23:31:54.482Z,95703.66
2018-06-18T23:34:59.630Z,95705.84
2018-06-18T23:38:03.978Z,95709.84
2018-06-18T23:41:08.244Z,95705.05
2018-06-18T23:44:12.556Z,95707.16
2018-06-18T23:47:16.890Z,95708.81
2018-06-18T23:50:21.384Z,95706.59
2018-06-18T23:53:25.719Z,95708.64
2018-06-18T23:56:30.365Z,95703.84
2018-06-18T23:59:34.670Z,95703.93
